VBS weather

Brescia Airport
Montichiari (BS), Lombardy, Italy

Public forecast

Using degrees Celsius for public forecast. Weather courtesy of forecast.io.

Current aviation weather report (METAR) for Brescia Airport

Report is more than 6 hours old.

Retrieved 2020/04/05 23:50 UTC (12 hours ago):

LIPO 052350Z 04005KT CAVOK 10/00 Q1025

Aviation forecast (TAF) for Brescia Airport

Forecast is more than 12 hours old.

Retrieved 2020/04/05 18:21 UTC (17 hours ago):

TAF LIPO 051700Z 0518/0618 03006KT CAVOK